Time;durP1;ratioP1;P1;durP2;ratioP2;P2;SDS_P1;SDS_P2;PMS_P1;PMS_P2;Temp;Humidity;BMP_temperature;BMP_pressure;BME280_temperature;BME280_humidity;BME280_pressure;Samples;Min_cycle;Max_cycle;Signal;HPM_P1;HPM_P2
2023/10/12 00:01:38;;;;;;;;;;;15.40;55.90;;;;;;4953370;28;88988;-45
2023/10/12 00:04:07;;;;;;;;;;;15.40;55.90;;;;;;4954594;28;88223;-46
2023/10/12 00:06:37;;;;;;;;;;;15.40;55.90;;;;;;4958154;28;86346;-44
2023/10/12 00:09:19;;;;;;;;;;;15.40;55.90;;;;;;4955187;28;87119;-49
2023/10/12 00:11:57;;;;;;;;;;;15.40;55.80;;;;;;4953912;28;89579;-48
2023/10/12 00:14:23;;;;;;;;;;;15.40;55.80;;;;;;4957416;28;88084;-50
2023/10/12 00:16:51;;;;;;;;;;;15.40;55.80;;;;;;4956640;28;88026;-45
2023/10/12 00:19:17;;;;;;;;;;;15.40;55.80;;;;;;4954331;28;87181;-42
2023/10/12 00:21:43;;;;;;;;;;;15.30;55.70;;;;;;4954367;28;87711;-47
2023/10/12 00:24:13;;;;;;;;;;;15.40;55.80;;;;;;4956219;28;89884;-42
2023/10/12 00:26:43;;;;;;;;;;;15.40;55.70;;;;;;4955784;28;87252;-45
2023/10/12 00:29:08;;;;;;;;;;;15.30;55.60;;;;;;4955762;28;87404;-46
2023/10/12 00:31:37;;;;;;;;;;;15.30;55.60;;;;;;4957099;28;88742;-43
2023/10/12 00:34:03;;;;;;;;;;;15.30;55.60;;;;;;4954576;28;87226;-42
2023/10/12 00:36:29;;;;;;;;;;;15.40;55.60;;;;;;4959033;28;87093;-46
2023/10/12 00:38:56;;;;;;;;;;;15.30;55.60;;;;;;4956052;28;88131;-45
2023/10/12 00:41:24;;;;;;;;;;;15.30;55.60;;;;;;4956365;28;88356;-47
2023/10/12 00:44:10;;;;;;;;;;;15.30;55.60;;;;;;4956389;28;89324;-48
2023/10/12 00:49:17;;;;;;;;;;;15.20;55.60;;;;;;4954009;28;87538;-45
2023/10/12 00:51:49;;;;;;;;;;;15.30;55.60;;;;;;4955358;28;89389;-45
2023/10/12 00:54:25;;;;;;;;;;;15.20;55.50;;;;;;4954114;28;87039;-44
2023/10/12 00:56:52;;;;;;;;;;;15.20;55.40;;;;;;4956072;28;88667;-43
2023/10/12 00:59:21;;;;;;;;;;;15.30;55.50;;;;;;4958869;28;89575;-43
2023/10/12 01:01:48;;;;;;;;;;;15.20;55.50;;;;;;4956785;28;88981;-43
2023/10/12 01:04:16;;;;;;;;;;;15.20;55.50;;;;;;4952266;28;89072;-46
2023/10/12 01:06:44;;;;;;;;;;;15.20;55.50;;;;;;4955773;28;87155;-43
2023/10/12 01:09:19;;;;;;;;;;;15.20;55.40;;;;;;4955197;28;88761;-44
2023/10/12 01:11:52;;;;;;;;;;;15.20;55.40;;;;;;4953316;28;88132;-45
2023/10/12 01:14:18;;;;;;;;;;;15.10;55.40;;;;;;4954998;28;87192;-45
2023/10/12 01:16:54;;;;;;;;;;;15.10;55.50;;;;;;4954997;28;87917;-45
2023/10/12 01:19:21;;;;;;;;;;;15.10;55.40;;;;;;4953264;28;88035;-45
2023/10/12 01:21:47;;;;;;;;;;;15.10;55.30;;;;;;4959419;28;86354;-44
2023/10/12 01:24:13;;;;;;;;;;;15.10;55.40;;;;;;4954091;28;89678;-44
2023/10/12 01:26:48;;;;;;;;;;;15.10;55.50;;;;;;4954922;28;87430;-45
2023/10/12 01:29:20;;;;;;;;;;;15.10;55.40;;;;;;4955320;28;89004;-45
2023/10/12 01:32:20;;;;;;;;;;;15.10;55.40;;;;;;4953946;28;89501;-49
2023/10/12 01:34:38;;;;;;;;;;;15.00;55.40;;;;;;4954077;28;87000;-44
2023/10/12 01:37:04;;;;;;;;;;;15.00;55.40;;;;;;4956551;28;87426;-45
2023/10/12 01:39:31;;;;;;;;;;;15.00;55.30;;;;;;4952143;28;91472;-44
2023/10/12 01:41:57;;;;;;;;;;;15.00;55.30;;;;;;4956067;28;87126;-43
2023/10/12 01:44:23;;;;;;;;;;;15.00;55.40;;;;;;4956577;28;88922;-45
2023/10/12 01:46:49;;;;;;;;;;;15.00;55.40;;;;;;4954020;28;86249;-45
2023/10/12 01:49:15;;;;;;;;;;;14.90;55.30;;;;;;4954035;28;88435;-43
2023/10/12 01:51:45;;;;;;;;;;;15.00;55.30;;;;;;4959072;28;89306;-45
2023/10/12 01:54:12;;;;;;;;;;;14.90;55.30;;;;;;4952288;28;88130;-43
2023/10/12 01:56:38;;;;;;;;;;;14.90;55.40;;;;;;4956223;28;89825;-44
2023/10/12 01:59:07;;;;;;;;;;;14.90;55.40;;;;;;4957291;28;88220;-46
2023/10/12 02:01:41;;;;;;;;;;;14.90;55.30;;;;;;4954060;28;87094;-44
2023/10/12 02:04:07;;;;;;;;;;;14.90;55.40;;;;;;4957197;28;87372;-45
2023/10/12 02:06:32;;;;;;;;;;;14.80;55.30;;;;;;4959898;28;87307;-43
2023/10/12 02:09:34;;;;;;;;;;;14.80;55.30;;;;;;4955998;28;87403;-42
2023/10/12 02:11:57;;;;;;;;;;;14.80;55.30;;;;;;4954997;28;88189;-50
2023/10/12 02:14:32;;;;;;;;;;;14.80;55.20;;;;;;4956943;28;87095;-45
2023/10/12 02:17:02;;;;;;;;;;;14.80;55.20;;;;;;4955497;28;87496;-45
2023/10/12 02:19:36;;;;;;;;;;;14.80;55.30;;;;;;4952055;28;88030;-46
2023/10/12 02:22:04;;;;;;;;;;;14.80;55.20;;;;;;4953049;28;87170;-44
2023/10/12 02:24:29;;;;;;;;;;;14.80;55.30;;;;;;4954823;28;89073;-46
2023/10/12 02:27:00;;;;;;;;;;;14.80;55.30;;;;;;4955080;28;88463;-45
2023/10/12 02:29:28;;;;;;;;;;;14.70;55.30;;;;;;4954251;28;89721;-45
2023/10/12 02:31:55;;;;;;;;;;;14.70;55.30;;;;;;4953245;28;89560;-41
2023/10/12 02:34:25;;;;;;;;;;;14.80;55.30;;;;;;4952320;28;87143;-42
2023/10/12 02:39:42;;;;;;;;;;;14.70;55.10;;;;;;4949066;28;87995;-42
2023/10/12 02:42:17;;;;;;;;;;;14.70;55.20;;;;;;4952844;28;87242;-47
2023/10/12 02:47:24;;;;;;;;;;;14.70;55.20;;;;;;4949881;28;87834;-46
2023/10/12 02:50:00;;;;;;;;;;;14.70;55.20;;;;;;4956791;28;87026;-47
2023/10/12 02:52:27;;;;;;;;;;;14.60;55.20;;;;;;4951887;28;88105;-46
2023/10/12 02:54:55;;;;;;;;;;;14.60;55.10;;;;;;4954445;28;87304;-45
2023/10/12 02:57:25;;;;;;;;;;;14.60;55.20;;;;;;4953286;28;88954;-48
2023/10/12 02:59:57;;;;;;;;;;;14.60;55.20;;;;;;4951993;28;89219;-43
2023/10/12 03:02:30;;;;;;;;;;;14.60;55.20;;;;;;4952977;28;86393;-42
2023/10/12 03:04:55;;;;;;;;;;;14.60;55.20;;;;;;4953490;28;87275;-45
2023/10/12 03:07:24;;;;;;;;;;;14.60;55.00;;;;;;4953398;28;89433;-43
2023/10/12 03:09:55;;;;;;;;;;;14.60;55.10;;;;;;4951102;28;88109;-45
2023/10/12 03:12:23;;;;;;;;;;;14.60;55.10;;;;;;4954662;28;89639;-45
2023/10/12 03:14:51;;;;;;;;;;;14.50;55.10;;;;;;4954532;28;87133;-45
2023/10/12 03:17:19;;;;;;;;;;;14.50;55.10;;;;;;4951950;28;89040;-43
2023/10/12 03:19:55;;;;;;;;;;;14.50;55.00;;;;;;4954033;28;87967;-42
2023/10/12 03:22:34;;;;;;;;;;;14.50;55.00;;;;;;4952699;28;87611;-45
2023/10/12 03:25:19;;;;;;;;;;;14.50;55.00;;;;;;4951679;28;87481;-47
2023/10/12 03:27:50;;;;;;;;;;;14.50;55.00;;;;;;4951985;28;88851;-43
2023/10/12 03:30:17;;;;;;;;;;;14.40;55.00;;;;;;4951882;28;87072;-43
2023/10/12 03:32:44;;;;;;;;;;;14.40;55.00;;;;;;4954265;28;87512;-42
2023/10/12 03:35:13;;;;;;;;;;;14.50;55.00;;;;;;4954558;28;90785;-42
2023/10/12 03:37:45;;;;;;;;;;;14.40;55.00;;;;;;4952723;28;89607;-45
2023/10/12 03:41:46;;;;;;;;;;;14.40;54.90;;;;;;4951394;28;87952;-43
2023/10/12 03:43:08;;;;;;;;;;;14.40;55.00;;;;;;4947572;28;87131;-44
2023/10/12 03:45:34;;;;;;;;;;;14.30;54.90;;;;;;4952784;28;88865;-44
2023/10/12 03:53:34;;;;;;;;;;;14.30;55.00;;;;;;4932159;28;86861;-49
2023/10/12 03:56:02;;;;;;;;;;;14.30;54.90;;;;;;4952176;28;88003;-47
2023/10/12 03:58:28;;;;;;;;;;;14.30;54.80;;;;;;4956712;28;86927;-41
2023/10/12 04:03:40;;;;;;;;;;;14.30;54.90;;;;;;4951391;28;87113;-46
2023/10/12 04:06:15;;;;;;;;;;;14.30;54.90;;;;;;4954195;28;89332;-42
2023/10/12 04:08:51;;;;;;;;;;;14.20;54.80;;;;;;4952020;28;89706;-46
2023/10/12 04:14:31;;;;;;;;;;;14.20;54.80;;;;;;4951270;28;87162;-42
2023/10/12 04:17:06;;;;;;;;;;;14.20;54.90;;;;;;4953513;28;89561;-45
2023/10/12 04:19:33;;;;;;;;;;;14.20;55.40;;;;;;4955706;28;86334;-47
2023/10/12 04:22:16;;;;;;;;;;;14.20;54.80;;;;;;4951671;28;89248;-43
2023/10/12 04:24:47;;;;;;;;;;;14.20;54.80;;;;;;4951811;28;87145;-43
2023/10/12 04:27:59;;;;;;;;;;;14.20;54.90;;;;;;4950934;28;88753;-43
2023/10/12 04:30:03;;;;;;;;;;;14.20;54.80;;;;;;4949415;28;87430;-46
2023/10/12 04:38:08;;;;;;;;;;;14.10;54.80;;;;;;4926074;28;87245;-45
2023/10/12 04:40:37;;;;;;;;;;;14.10;54.80;;;;;;4954207;28;87067;-46
2023/10/12 04:43:06;;;;;;;;;;;14.10;54.80;;;;;;4954904;28;88877;-45
2023/10/12 04:46:05;;;;;;;;;;;14.10;54.70;;;;;;4950591;28;87524;-47
2023/10/12 04:48:21;;;;;;;;;;;14.10;54.70;;;;;;4952084;28;87261;-46
2023/10/12 04:50:52;;;;;;;;;;;14.10;54.80;;;;;;4955266;28;88019;-48
2023/10/12 04:53:19;;;;;;;;;;;14.00;54.70;;;;;;4955104;28;88094;-47
2023/10/12 04:55:47;;;;;;;;;;;14.10;54.70;;;;;;4950164;28;88733;-45
2023/10/12 04:58:30;;;;;;;;;;;14.00;54.70;;;;;;4957443;28;87983;-46
2023/10/12 05:01:12;;;;;;;;;;;14.00;54.70;;;;;;4953914;28;86994;-46
2023/10/12 05:03:41;;;;;;;;;;;14.00;54.70;;;;;;4953816;28;88805;-42
2023/10/12 05:06:13;;;;;;;;;;;14.00;54.70;;;;;;4956604;28;88180;-42
2023/10/12 05:08:40;;;;;;;;;;;14.00;54.60;;;;;;4957116;28;87482;-42
2023/10/12 05:11:08;;;;;;;;;;;14.00;54.60;;;;;;4954914;28;87323;-45
2023/10/12 05:13:34;;;;;;;;;;;13.90;54.60;;;;;;4950704;28;87091;-45
2023/10/12 05:16:04;;;;;;;;;;;13.90;54.70;;;;;;4958046;28;87501;-45
2023/10/12 05:18:31;;;;;;;;;;;13.90;54.60;;;;;;4952837;28;90386;-44
2023/10/12 05:20:57;;;;;;;;;;;13.90;54.60;;;;;;4956136;28;89001;-46
2023/10/12 05:23:22;;;;;;;;;;;13.90;54.60;;;;;;4951986;28;87564;-45
2023/10/12 05:25:53;;;;;;;;;;;13.90;54.70;;;;;;4955838;28;88094;-43
2023/10/12 05:28:19;;;;;;;;;;;13.90;54.70;;;;;;4959291;28;87111;-47
2023/10/12 05:30:50;;;;;;;;;;;13.80;54.60;;;;;;4953877;28;89033;-43
2023/10/12 05:36:00;;;;;;;;;;;13.90;54.60;;;;;;4955601;28;87395;-43
2023/10/12 05:38:35;;;;;;;;;;;13.90;54.60;;;;;;4954077;28;88238;-45
2023/10/12 05:41:08;;;;;;;;;;;13.90;54.70;;;;;;4952579;28;88037;-46
2023/10/12 05:43:38;;;;;;;;;;;13.80;54.60;;;;;;4951772;28;88156;-45
2023/10/12 05:46:10;;;;;;;;;;;13.80;54.60;;;;;;4954388;28;87035;-48
2023/10/12 05:48:41;;;;;;;;;;;13.80;54.60;;;;;;4953431;28;88144;-45
2023/10/12 05:51:09;;;;;;;;;;;13.80;54.60;;;;;;4954824;28;88720;-45
2023/10/12 05:53:35;;;;;;;;;;;13.80;54.60;;;;;;4954733;28;87647;-43
2023/10/12 05:56:01;;;;;;;;;;;13.80;54.60;;;;;;4955036;28;87452;-46
2023/10/12 05:58:26;;;;;;;;;;;13.80;54.60;;;;;;4950063;28;89101;-48
2023/10/12 06:00:52;;;;;;;;;;;13.80;54.60;;;;;;4948099;28;86465;-45
2023/10/12 06:03:21;;;;;;;;;;;13.80;54.60;;;;;;4954383;28;87129;-46
2023/10/12 06:05:47;;;;;;;;;;;13.80;54.70;;;;;;4954674;28;88057;-45
2023/10/12 06:08:17;;;;;;;;;;;13.80;54.70;;;;;;4951512;28;88510;-45
2023/10/12 06:10:42;;;;;;;;;;;13.80;54.70;;;;;;4953748;28;89999;-43
2023/10/12 06:13:15;;;;;;;;;;;13.80;54.70;;;;;;4953046;28;87302;-43
2023/10/12 06:15:42;;;;;;;;;;;13.70;54.60;;;;;;4955564;28;87427;-46
2023/10/12 06:18:11;;;;;;;;;;;13.80;54.70;;;;;;4955747;28;89649;-44
2023/10/12 06:20:46;;;;;;;;;;;13.70;54.70;;;;;;4955045;28;88018;-46
2023/10/12 06:23:15;;;;;;;;;;;13.80;54.70;;;;;;4952669;28;89149;-43
2023/10/12 06:25:43;;;;;;;;;;;13.80;54.70;;;;;;4952006;28;87236;-44
2023/10/12 06:28:17;;;;;;;;;;;13.80;54.70;;;;;;4951402;28;88861;-45
2023/10/12 06:30:46;;;;;;;;;;;13.80;54.70;;;;;;4954096;28;89551;-43
2023/10/12 06:33:15;;;;;;;;;;;13.80;54.70;;;;;;4956157;28;88786;-46
2023/10/12 06:36:03;;;;;;;;;;;13.70;54.70;;;;;;4953952;28;87349;-48
2023/10/12 06:41:27;;;;;;;;;;;13.70;54.70;;;;;;4949217;28;87119;-45
2023/10/12 06:46:15;;;;;;;;;;;13.70;54.80;;;;;;4952579;28;88384;-45
2023/10/12 06:48:44;;;;;;;;;;;13.70;54.80;;;;;;4952542;28;87016;-45
2023/10/12 06:51:15;;;;;;;;;;;13.70;54.90;;;;;;4954434;28;87661;-46
2023/10/12 06:53:44;;;;;;;;;;;13.70;54.90;;;;;;4951942;28;89340;-42
2023/10/12 06:56:24;;;;;;;;;;;13.70;55.30;;;;;;4952236;28;87300;-45
2023/10/12 07:04:15;;;;;;;;;;;13.70;55.00;;;;;;4951418;28;87411;-44
2023/10/12 07:06:56;;;;;;;;;;;13.70;55.10;;;;;;4956030;28;88074;-45
2023/10/12 07:09:29;;;;;;;;;;;13.70;55.20;;;;;;4951962;28;87236;-43
2023/10/12 07:11:54;;;;;;;;;;;13.70;55.30;;;;;;4947737;28;88494;-42
2023/10/12 07:14:31;;;;;;;;;;;13.60;55.20;;;;;;4950119;28;88245;-46
2023/10/12 07:16:57;;;;;;;;;;;13.70;55.20;;;;;;4955958;28;86328;-47
2023/10/12 07:19:24;;;;;;;;;;;13.70;55.20;;;;;;4955039;28;87228;-44
2023/10/12 07:22:01;;;;;;;;;;;13.60;55.30;;;;;;4947692;28;87673;-49
2023/10/12 07:24:27;;;;;;;;;;;13.70;55.30;;;;;;4953145;28;89371;-44
2023/10/12 07:26:52;;;;;;;;;;;13.70;55.20;;;;;;4951223;28;87215;-45
2023/10/12 07:29:35;;;;;;;;;;;13.70;55.30;;;;;;4952480;28;87956;-41
2023/10/12 07:32:18;;;;;;;;;;;13.70;55.40;;;;;;4951176;28;88667;-46
2023/10/12 07:34:51;;;;;;;;;;;13.60;55.30;;;;;;4954229;28;89882;-46
2023/10/12 07:37:17;;;;;;;;;;;13.60;55.40;;;;;;4954069;28;87078;-43
2023/10/12 07:39:43;;;;;;;;;;;13.60;55.50;;;;;;4953018;28;88849;-43
2023/10/12 07:42:12;;;;;;;;;;;13.60;55.60;;;;;;4953830;28;87604;-45
2023/10/12 07:44:53;;;;;;;;;;;13.60;55.60;;;;;;4954936;28;87084;-49
2023/10/12 07:47:22;;;;;;;;;;;13.60;55.60;;;;;;4952165;28;89514;-46
2023/10/12 07:49:57;;;;;;;;;;;13.60;55.70;;;;;;4951154;28;88000;-44
2023/10/12 07:52:31;;;;;;;;;;;13.60;55.70;;;;;;4951589;28;87504;-42
2023/10/12 07:54:58;;;;;;;;;;;13.60;55.80;;;;;;4951981;28;88940;-45
2023/10/12 07:57:29;;;;;;;;;;;13.50;55.70;;;;;;4950431;28;87093;-42
2023/10/12 08:02:59;;;;;;;;;;;13.60;55.80;;;;;;4958629;28;87139;-42
2023/10/12 08:15:55;;;;;;;;;;;13.50;56.20;;;;;;4947883;28;88989;-48
2023/10/12 08:21:24;;;;;;;;;;;13.60;56.30;;;;;;4953959;28;87104;-45
2023/10/12 08:23:57;;;;;;;;;;;13.60;56.30;;;;;;4953718;28;89473;-41
2023/10/12 08:26:35;;;;;;;;;;;13.60;56.30;;;;;;4950000;28;87223;-46
2023/10/12 08:29:08;;;;;;;;;;;13.60;56.30;;;;;;4956145;28;88522;-43
2023/10/12 08:31:43;;;;;;;;;;;13.60;56.40;;;;;;4956787;28;87099;-49
2023/10/12 08:39:38;;;;;;;;;;;13.60;56.50;;;;;;4954149;28;87041;-46
2023/10/12 08:44:48;;;;;;;;;;;13.60;56.60;;;;;;4950971;28;88072;-45
2023/10/12 08:47:24;;;;;;;;;;;13.50;56.80;;;;;;4956093;28;87140;-43
2023/10/12 08:49:53;;;;;;;;;;;13.60;56.80;;;;;;4961103;28;89314;-49
2023/10/12 08:52:21;;;;;;;;;;;13.50;56.80;;;;;;4955547;28;87172;-42
2023/10/12 08:54:51;;;;;;;;;;;13.60;56.90;;;;;;4949025;28;88242;-48
2023/10/12 08:57:32;;;;;;;;;;;13.50;56.90;;;;;;4953891;28;89261;-44
2023/10/12 09:03:08;;;;;;;;;;;13.60;56.90;;;;;;4941157;28;87613;-45
2023/10/12 09:05:34;;;;;;;;;;;13.50;57.00;;;;;;4940437;28;87720;-42
2023/10/12 09:11:29;;;;;;;;;;;13.60;57.20;;;;;;4952441;28;88413;-44
2023/10/12 09:13:28;;;;;;;;;;;13.60;57.20;;;;;;4947628;28;87334;-48
2023/10/12 09:15:55;;;;;;;;;;;13.60;57.10;;;;;;4957453;28;87746;-43
2023/10/12 09:18:24;;;;;;;;;;;13.60;57.30;;;;;;4957019;28;88101;-44
2023/10/12 09:23:29;;;;;;;;;;;13.70;57.10;;;;;;4949985;28;87407;-43
2023/10/12 09:26:13;;;;;;;;;;;13.70;57.20;;;;;;4956357;28;87811;-46
2023/10/12 09:31:14;;;;;;;;;;;13.60;57.20;;;;;;4952545;28;87403;-43
2023/10/12 09:36:26;;;;;;;;;;;13.60;57.20;;;;;;4956485;28;87006;-43
2023/10/12 09:38:55;;;;;;;;;;;13.70;57.50;;;;;;4954912;28;88006;-42
2023/10/12 09:41:34;;;;;;;;;;;13.70;57.50;;;;;;4953919;28;87464;-45
2023/10/12 09:44:04;;;;;;;;;;;13.70;57.40;;;;;;4953692;28;87356;-46
2023/10/12 09:46:32;;;;;;;;;;;13.70;57.40;;;;;;4954242;28;89413;-44
2023/10/12 09:49:06;;;;;;;;;;;13.70;57.50;;;;;;4954001;28;88089;-44
2023/10/12 09:51:36;;;;;;;;;;;13.70;57.70;;;;;;4954557;28;88158;-48
2023/10/12 09:54:05;;;;;;;;;;;13.70;57.70;;;;;;4953704;28;88533;-46
2023/10/12 09:56:46;;;;;;;;;;;13.80;57.70;;;;;;4954762;28;87116;-46
2023/10/12 09:59:18;;;;;;;;;;;13.80;57.70;;;;;;4955648;28;89153;-47
2023/10/12 10:07:18;;;;;;;;;;;13.80;57.70;;;;;;4952925;28;87392;-46
2023/10/12 10:09:46;;;;;;;;;;;13.80;57.70;;;;;;4950130;28;88006;-48
2023/10/12 10:12:15;;;;;;;;;;;13.80;57.60;;;;;;4957141;28;88755;-45
2023/10/12 10:14:44;;;;;;;;;;;13.80;57.60;;;;;;4952373;28;89530;-47
2023/10/12 10:17:14;;;;;;;;;;;13.80;57.60;;;;;;4951187;28;87440;-43
2023/10/12 10:19:43;;;;;;;;;;;13.90;57.60;;;;;;4954849;28;87258;-45
2023/10/12 10:22:13;;;;;;;;;;;13.90;57.70;;;;;;4957846;28;87335;-45
2023/10/12 10:24:54;;;;;;;;;;;13.90;57.50;;;;;;4952382;28;88814;-42
2023/10/12 10:27:26;;;;;;;;;;;13.90;57.60;;;;;;4951676;28;87987;-46
2023/10/12 10:29:56;;;;;;;;;;;13.90;57.60;;;;;;4953875;28;87129;-46
2023/10/12 10:32:36;;;;;;;;;;;13.90;57.50;;;;;;4955192;28;88741;-42
2023/10/12 10:35:08;;;;;;;;;;;13.90;57.80;;;;;;4953117;28;88040;-47
2023/10/12 10:37:58;;;;;;;;;;;14.00;58.00;;;;;;4954445;28;87176;-45
2023/10/12 10:40:45;;;;;;;;;;;14.00;57.80;;;;;;4954505;28;88787;-43
2023/10/12 10:43:14;;;;;;;;;;;14.00;57.60;;;;;;4956100;28;88409;-45
2023/10/12 10:45:42;;;;;;;;;;;14.00;57.80;;;;;;4953437;28;87360;-44
2023/10/12 10:48:13;;;;;;;;;;;14.00;57.90;;;;;;4948606;28;90055;-44
2023/10/12 10:50:49;;;;;;;;;;;14.00;57.90;;;;;;4952189;28;88778;-43
2023/10/12 10:53:15;;;;;;;;;;;14.10;58.10;;;;;;4955736;28;89757;-44
2023/10/12 10:55:41;;;;;;;;;;;14.10;58.10;;;;;;4952555;28;88046;-42
2023/10/12 10:58:07;;;;;;;;;;;14.10;58.00;;;;;;4952927;28;87210;-43
2023/10/12 11:00:37;;;;;;;;;;;14.10;58.20;;;;;;4955484;28;87055;-45
2023/10/12 11:03:03;;;;;;;;;;;14.10;58.80;;;;;;4952555;28;88050;-45
2023/10/12 11:05:29;;;;;;;;;;;14.10;58.20;;;;;;4955613;28;87149;-50
2023/10/12 11:07:58;;;;;;;;;;;14.10;58.10;;;;;;4956646;28;86807;-44
2023/10/12 11:10:34;;;;;;;;;;;14.10;58.30;;;;;;4954588;28;87240;-46
2023/10/12 11:13:00;;;;;;;;;;;14.20;58.10;;;;;;4953108;28;87196;-48
2023/10/12 11:15:26;;;;;;;;;;;14.20;58.10;;;;;;4954170;28;88198;-44
2023/10/12 11:18:00;;;;;;;;;;;14.20;57.90;;;;;;4956198;28;87254;-43
2023/10/12 11:20:38;;;;;;;;;;;14.30;57.70;;;;;;4952661;28;87407;-43
2023/10/12 11:23:07;;;;;;;;;;;14.30;58.10;;;;;;4952184;28;89760;-47
2023/10/12 11:25:39;;;;;;;;;;;14.30;58.20;;;;;;4951516;28;87278;-51
2023/10/12 11:28:19;;;;;;;;;;;14.30;58.20;;;;;;4954672;28;88761;-47
2023/10/12 11:30:45;;;;;;;;;;;14.30;58.30;;;;;;4951574;28;87369;-44
2023/10/12 11:33:10;;;;;;;;;;;14.30;58.20;;;;;;4957749;28;86491;-46
2023/10/12 11:35:43;;;;;;;;;;;14.30;58.10;;;;;;4954691;28;88662;-43
2023/10/12 11:38:19;;;;;;;;;;;14.30;58.20;;;;;;4954759;28;87063;-46
2023/10/12 11:40:52;;;;;;;;;;;14.40;58.10;;;;;;4952826;28;87958;-45
2023/10/12 11:43:38;;;;;;;;;;;14.40;58.20;;;;;;4952179;28;88046;-44
2023/10/12 11:46:03;;;;;;;;;;;14.40;58.30;;;;;;4951892;28;87049;-46
2023/10/12 11:48:30;;;;;;;;;;;14.40;58.30;;;;;;4952591;28;87440;-46
2023/10/12 11:51:10;;;;;;;;;;;14.40;58.30;;;;;;4956588;28;87931;-47
2023/10/12 11:53:38;;;;;;;;;;;14.50;58.10;;;;;;4952410;28;88498;-45
2023/10/12 11:56:08;;;;;;;;;;;14.50;58.00;;;;;;4955430;28;89323;-45
2023/10/12 11:58:33;;;;;;;;;;;14.50;58.00;;;;;;4953188;28;86463;-46
2023/10/12 12:01:00;;;;;;;;;;;14.50;58.00;;;;;;4953194;28;87274;-45
2023/10/12 12:03:26;;;;;;;;;;;14.60;58.00;;;;;;4954445;28;87086;-42
2023/10/12 12:05:51;;;;;;;;;;;14.60;58.10;;;;;;4956456;28;88071;-47
2023/10/12 12:08:24;;;;;;;;;;;14.60;57.80;;;;;;4955969;28;88802;-47
2023/10/12 12:13:16;;;;;;;;;;;14.60;57.70;;;;;;4964331;28;87292;-44
2023/10/12 12:15:45;;;;;;;;;;;14.60;57.90;;;;;;4956583;28;87998;-44
2023/10/12 12:18:20;;;;;;;;;;;14.70;57.90;;;;;;4956316;28;88842;-46
2023/10/12 12:20:50;;;;;;;;;;;14.70;57.90;;;;;;4951502;28;88448;-45
2023/10/12 12:23:19;;;;;;;;;;;14.70;57.60;;;;;;4954386;28;87220;-47
2023/10/12 12:25:45;;;;;;;;;;;14.70;57.60;;;;;;4955797;28;87469;-45
2023/10/12 12:28:14;;;;;;;;;;;14.80;58.20;;;;;;4956544;28;87070;-48
2023/10/12 12:30:46;;;;;;;;;;;14.80;57.90;;;;;;4954909;28;89593;-43
2023/10/12 12:33:18;;;;;;;;;;;14.80;57.70;;;;;;4957856;28;87485;-44
2023/10/12 12:36:22;;;;;;;;;;;14.80;57.50;;;;;;4958940;28;87415;-46
2023/10/12 12:41:12;;;;;;;;;;;14.80;57.60;;;;;;4953759;28;87344;-42
2023/10/12 12:43:38;;;;;;;;;;;14.80;57.60;;;;;;4957326;28;89568;-46
2023/10/12 12:46:05;;;;;;;;;;;14.90;57.50;;;;;;4956103;28;87231;-44
2023/10/12 12:48:31;;;;;;;;;;;14.90;57.40;;;;;;4951354;28;89207;-47
2023/10/12 12:50:56;;;;;;;;;;;14.90;57.50;;;;;;4957170;28;88792;-43
2023/10/12 12:53:22;;;;;;;;;;;14.90;57.50;;;;;;4953834;28;87191;-45
2023/10/12 12:55:48;;;;;;;;;;;14.90;57.50;;;;;;4958984;28;88115;-44
2023/10/12 12:58:17;;;;;;;;;;;14.90;57.40;;;;;;4952119;28;87418;-44
2023/10/12 13:00:46;;;;;;;;;;;14.90;57.50;;;;;;4957159;28;87064;-46
2023/10/12 13:03:12;;;;;;;;;;;14.90;57.50;;;;;;4955243;28;88918;-44
2023/10/12 13:05:38;;;;;;;;;;;15.00;57.50;;;;;;4954739;28;87307;-47
2023/10/12 13:08:07;;;;;;;;;;;15.00;57.80;;;;;;4952770;28;89901;-46
2023/10/12 13:10:36;;;;;;;;;;;15.00;57.60;;;;;;4954974;28;88003;-45
2023/10/12 13:13:02;;;;;;;;;;;15.00;57.40;;;;;;4955564;28;86455;-44
2023/10/12 13:15:27;;;;;;;;;;;15.10;57.50;;;;;;4954234;28;87250;-44
2023/10/12 13:17:56;;;;;;;;;;;15.10;57.40;;;;;;4959162;28;87895;-42
2023/10/12 13:20:21;;;;;;;;;;;15.10;57.30;;;;;;4954750;28;89553;-46
2023/10/12 13:22:48;;;;;;;;;;;15.10;57.40;;;;;;4955813;28;88159;-47
2023/10/12 13:25:18;;;;;;;;;;;15.10;58.00;;;;;;4955994;28;87932;-43
2023/10/12 13:27:49;;;;;;;;;;;15.10;57.30;;;;;;4957550;28;87186;-46
2023/10/12 13:30:15;;;;;;;;;;;15.20;57.30;;;;;;4955743;28;89306;-49
2023/10/12 13:32:43;;;;;;;;;;;15.20;57.20;;;;;;4954544;28;87206;-44
2023/10/12 13:38:11;;;;;;;;;;;15.20;57.10;;;;;;4940770;28;88222;-43
2023/10/12 13:40:38;;;;;;;;;;;15.30;57.20;;;;;;4955829;28;87174;-42
2023/10/12 13:43:21;;;;;;;;;;;15.20;57.10;;;;;;4955560;28;87970;-47
2023/10/12 13:45:48;;;;;;;;;;;15.30;57.20;;;;;;4955150;28;88178;-47
2023/10/12 13:48:17;;;;;;;;;;;15.30;57.20;;;;;;4953051;28;88521;-47
2023/10/12 13:50:46;;;;;;;;;;;15.30;57.20;;;;;;4955827;28;89516;-47
2023/10/12 13:53:13;;;;;;;;;;;15.30;57.20;;;;;;4949669;28;87268;-46
2023/10/12 13:55:38;;;;;;;;;;;15.30;57.20;;;;;;4956608;28;87467;-44
2023/10/12 13:58:05;;;;;;;;;;;15.30;57.30;;;;;;4955762;28;89244;-46
2023/10/12 14:00:34;;;;;;;;;;;15.30;57.20;;;;;;4953242;28;87115;-43
2023/10/12 14:03:10;;;;;;;;;;;15.40;57.20;;;;;;4950886;28;89045;-45
2023/10/12 14:05:40;;;;;;;;;;;15.40;57.20;;;;;;4958427;28;88995;-44
2023/10/12 14:08:08;;;;;;;;;;;15.40;57.20;;;;;;4952784;28;88861;-44
2023/10/12 14:10:37;;;;;;;;;;;15.40;57.20;;;;;;4948893;28;90413;-45
2023/10/12 14:13:03;;;;;;;;;;;15.40;57.20;;;;;;4949823;28;87361;-47
2023/10/12 14:15:29;;;;;;;;;;;15.40;57.10;;;;;;4954719;28;87463;-44
2023/10/12 14:17:59;;;;;;;;;;;15.40;57.70;;;;;;4955473;28;88400;-42
2023/10/12 14:20:26;;;;;;;;;;;15.40;57.20;;;;;;4953070;28;87185;-45
2023/10/12 14:22:58;;;;;;;;;;;15.50;57.10;;;;;;4959251;28;88712;-43
2023/10/12 14:25:28;;;;;;;;;;;15.50;57.10;;;;;;4959731;28;88845;-49
2023/10/12 14:28:00;;;;;;;;;;;15.50;57.00;;;;;;4954211;28;87652;-48
2023/10/12 14:30:29;;;;;;;;;;;15.50;57.10;;;;;;4951000;28;88789;-42
2023/10/12 14:33:02;;;;;;;;;;;15.50;57.10;;;;;;4954454;28;87626;-48
2023/10/12 14:35:32;;;;;;;;;;;15.60;57.10;;;;;;4954732;28;88919;-44
2023/10/12 14:37:57;;;;;;;;;;;15.60;57.10;;;;;;4952300;28;88122;-46
2023/10/12 14:40:32;;;;;;;;;;;15.60;57.10;;;;;;4954060;28;87198;-44
2023/10/12 14:43:05;;;;;;;;;;;15.60;57.00;;;;;;4958520;28;87530;-46
2023/10/12 14:45:36;;;;;;;;;;;15.60;57.10;;;;;;4952510;28;89976;-43
2023/10/12 14:48:04;;;;;;;;;;;15.60;57.00;;;;;;4954677;28;87445;-42
2023/10/12 14:50:30;;;;;;;;;;;15.60;57.00;;;;;;4951792;28;88371;-45
2023/10/12 14:52:56;;;;;;;;;;;15.60;57.00;;;;;;4955557;28;86432;-48
2023/10/12 14:55:24;;;;;;;;;;;15.60;57.00;;;;;;4954723;28;88170;-46
2023/10/12 14:57:50;;;;;;;;;;;15.70;57.00;;;;;;4949409;28;88783;-44
2023/10/12 15:00:25;;;;;;;;;;;15.60;57.00;;;;;;4953064;28;88172;-49
2023/10/12 15:02:55;;;;;;;;;;;15.70;57.00;;;;;;4951336;28;88298;-46
2023/10/12 15:05:22;;;;;;;;;;;15.70;57.00;;;;;;4956582;28;88007;-42
2023/10/12 15:07:52;;;;;;;;;;;15.70;57.00;;;;;;4957448;28;87748;-43
2023/10/12 15:10:19;;;;;;;;;;;15.70;57.00;;;;;;4952202;28;88335;-45
2023/10/12 15:12:48;;;;;;;;;;;15.70;56.90;;;;;;4954700;28;87284;-46
2023/10/12 15:15:26;;;;;;;;;;;15.70;56.90;;;;;;4951831;28;88600;-46
2023/10/12 15:17:52;;;;;;;;;;;15.80;57.00;;;;;;4950320;28;88190;-47
2023/10/12 15:20:18;;;;;;;;;;;15.80;57.00;;;;;;4955535;28;87214;-44
2023/10/12 15:22:47;;;;;;;;;;;15.80;56.90;;;;;;4951888;28;87442;-46
2023/10/12 15:25:13;;;;;;;;;;;15.80;56.90;;;;;;4949732;28;90563;-45
2023/10/12 15:27:40;;;;;;;;;;;15.80;56.90;;;;;;4951215;28;87277;-47
2023/10/12 15:30:07;;;;;;;;;;;15.80;57.00;;;;;;4957594;28;89135;-45
2023/10/12 15:32:32;;;;;;;;;;;15.80;57.00;;;;;;4953386;28;87833;-44
2023/10/12 15:34:58;;;;;;;;;;;15.80;57.00;;;;;;4953786;28;87566;-49
2023/10/12 15:37:24;;;;;;;;;;;15.90;57.00;;;;;;4955668;28;88244;-45
2023/10/12 15:39:50;;;;;;;;;;;15.80;57.00;;;;;;4951806;28;86961;-43
2023/10/12 15:42:17;;;;;;;;;;;15.80;57.10;;;;;;4951547;28;87545;-46
2023/10/12 15:44:43;;;;;;;;;;;15.90;57.00;;;;;;4952525;28;88195;-48
2023/10/12 15:47:08;;;;;;;;;;;15.80;57.00;;;;;;4955674;28;87820;-45
2023/10/12 15:49:34;;;;;;;;;;;15.90;57.10;;;;;;4953979;28;88070;-44
2023/10/12 15:52:03;;;;;;;;;;;15.90;57.20;;;;;;4957247;28;88737;-47
2023/10/12 15:54:31;;;;;;;;;;;15.90;57.10;;;;;;4951617;28;87427;-45
2023/10/12 15:56:57;;;;;;;;;;;15.90;57.00;;;;;;4952428;28;87916;-44
2023/10/12 15:59:25;;;;;;;;;;;15.90;57.10;;;;;;4952210;28;87266;-47
2023/10/12 16:01:50;;;;;;;;;;;15.90;57.00;;;;;;4954234;28;87319;-47
2023/10/12 16:04:16;;;;;;;;;;;15.90;57.10;;;;;;4950009;28;89520;-44